Time;durP1;ratioP1;P1;durP2;ratioP2;P2;SDS_P1;SDS_P2;PMS_P1;PMS_P2;Temp;Humidity;BMP_temperature;BMP_pressure;BME280_temperature;BME280_humidity;BME280_pressure;Samples;Min_cycle;Max_cycle;Signal;HPM_P1;HPM_P2
2022/12/20 00:01:58;;;;;;;8.73;4.13;;;1.60;99.90;;;;;;5034848;28;20034;-69
2022/12/20 00:04:24;;;;;;;6.82;3.10;;;1.30;99.90;;;;;;5025203;28;20033;-70
2022/12/20 00:06:50;;;;;;;10.98;5.05;;;1.20;99.90;;;;;;5039199;28;20029;-70
2022/12/20 00:09:16;;;;;;;7.95;3.70;;;1.50;99.90;;;;;;5035544;28;20589;-70
2022/12/20 00:11:41;;;;;;;8.70;4.20;;;1.60;99.90;;;;;;5031184;28;20044;-70
2022/12/20 00:14:09;;;;;;;7.97;4.45;;;1.70;99.90;;;;;;5041039;28;20029;-70
2022/12/20 00:16:36;;;;;;;6.18;3.53;;;1.60;99.90;;;;;;5041999;28;20033;-70
2022/12/20 00:19:04;;;;;;;9.40;4.88;;;1.40;99.90;;;;;;5040176;28;20061;-70
2022/12/20 00:21:32;;;;;;;11.52;4.75;;;1.60;99.90;;;;;;5042570;28;20075;-70
2022/12/20 00:23:58;;;;;;;10.57;5.35;;;1.60;99.90;;;;;;5032656;28;20026;-70
2022/12/20 00:26:26;;;;;;;8.93;4.50;;;1.60;99.90;;;;;;5034233;28;20056;-70
2022/12/20 00:28:53;;;;;;;8.60;4.72;;;1.60;99.90;;;;;;5039710;28;20032;-70
2022/12/20 00:31:20;;;;;;;8.95;5.28;;;1.50;99.90;;;;;;5033438;28;20094;-70
2022/12/20 00:33:49;;;;;;;9.95;4.70;;;1.60;99.90;;;;;;5040836;28;20078;-70
2022/12/20 00:36:15;;;;;;;10.55;4.45;;;1.60;99.90;;;;;;5033115;28;20074;-70
2022/12/20 00:38:44;;;;;;;8.43;4.15;;;1.40;99.90;;;;;;5034763;28;20087;-70
2022/12/20 00:41:13;;;;;;;9.90;5.00;;;1.40;99.90;;;;;;5032452;28;20104;-70
2022/12/20 00:43:40;;;;;;;11.52;6.20;;;1.60;99.90;;;;;;5047889;28;20029;-71
2022/12/20 00:46:08;;;;;;;11.15;5.65;;;1.70;99.90;;;;;;5048715;28;20482;-70
2022/12/20 00:48:34;;;;;;;10.93;4.65;;;1.70;99.90;;;;;;5045299;28;20041;-71
2022/12/20 00:51:02;;;;;;;13.88;5.53;;;1.70;99.90;;;;;;5031560;28;20038;-70
2022/12/20 00:53:29;;;;;;;10.05;5.15;;;1.70;99.90;;;;;;5040142;28;20072;-70
2022/12/20 00:55:55;;;;;;;10.20;4.75;;;1.70;99.90;;;;;;5035598;28;20108;-71
2022/12/20 00:58:21;;;;;;;11.30;5.38;;;1.50;99.90;;;;;;5042227;28;20029;-70
2022/12/20 01:00:47;;;;;;;7.10;4.05;;;1.40;99.90;;;;;;5046264;28;20079;-70
2022/12/20 01:03:13;;;;;;;10.48;5.32;;;1.30;99.90;;;;;;5030679;28;20044;-70
2022/12/20 01:05:39;;;;;;;10.27;4.47;;;1.30;99.90;;;;;;5031716;28;20029;-71
2022/12/20 01:08:05;;;;;;;10.07;4.82;;;1.40;99.90;;;;;;5030943;28;20475;-70
2022/12/20 01:10:31;;;;;;;10.43;4.45;;;1.80;99.90;;;;;;5037499;28;20041;-70
2022/12/20 01:12:57;;;;;;;8.65;4.20;;;1.70;99.90;;;;;;5032743;28;20379;-70
2022/12/20 01:15:23;;;;;;;9.13;4.80;;;1.80;99.90;;;;;;5034196;28;20029;-70
2022/12/20 01:17:50;;;;;;;8.85;4.47;;;2.00;99.90;;;;;;5042894;28;20025;-70
2022/12/20 01:20:16;;;;;;;11.27;4.82;;;2.00;99.90;;;;;;5043581;28;20033;-70
2022/12/20 01:22:41;;;;;;;8.85;4.90;;;1.90;99.90;;;;;;5043128;28;20403;-70
2022/12/20 01:25:07;;;;;;;11.55;4.25;;;1.60;99.90;;;;;;5042198;28;20509;-69
2022/12/20 01:27:33;;;;;;;11.45;5.20;;;1.60;99.90;;;;;;5047929;28;20032;-70
2022/12/20 01:29:58;;;;;;;10.60;4.03;;;1.60;99.90;;;;;;5040990;28;20826;-70
2022/12/20 01:32:24;;;;;;;7.32;4.43;;;1.40;99.90;;;;;;5036604;28;20447;-70
2022/12/20 01:34:50;;;;;;;11.10;5.10;;;1.40;99.90;;;;;;5037798;28;20031;-70
2022/12/20 01:37:16;;;;;;;9.20;4.07;;;1.50;99.90;;;;;;5036285;28;20136;-70
2022/12/20 01:39:41;;;;;;;8.30;3.90;;;1.40;99.90;;;;;;5039009;28;20037;-70
2022/12/20 01:42:14;;;;;;;7.70;4.20;;;1.50;99.90;;;;;;5043965;28;20026;-70
2022/12/20 01:44:43;;;;;;;10.27;4.25;;;1.60;99.90;;;;;;5041084;28;20036;-70
2022/12/20 01:47:11;;;;;;;7.60;4.63;;;1.60;99.90;;;;;;5044205;28;20517;-70
2022/12/20 01:49:43;;;;;;;9.85;4.43;;;1.90;99.90;;;;;;5035341;28;20060;-69
2022/12/20 01:52:40;;;;;;;7.05;4.45;;;1.90;99.90;;;;;;5033679;28;20029;-70
2022/12/20 01:55:11;;;;;;;9.25;4.72;;;1.60;99.90;;;;;;5039746;28;20132;-70
2022/12/20 01:57:42;;;;;;;9.05;4.75;;;1.60;99.90;;;;;;5031920;28;20033;-70
2022/12/20 02:00:08;;;;;;;10.63;5.28;;;1.70;99.90;;;;;;5031952;28;20025;-70
2022/12/20 02:02:35;;;;;;;10.05;4.47;;;1.60;99.90;;;;;;5031092;28;20032;-70
2022/12/20 02:05:01;;;;;;;10.23;4.78;;;1.60;99.90;;;;;;5028197;28;20451;-70
2022/12/20 02:07:30;;;;;;;8.65;4.35;;;1.60;99.90;;;;;;5042525;28;20063;-71
2022/12/20 02:09:57;;;;;;;8.77;4.53;;;1.50;99.90;;;;;;5033242;28;20360;-70
2022/12/20 02:12:25;;;;;;;9.88;4.53;;;1.30;99.90;;;;;;5035824;28;20467;-71
2022/12/20 02:15:16;;;;;;;9.27;4.45;;;1.20;99.90;;;;;;5039700;28;20025;-70
2022/12/20 02:18:01;;;;;;;10.30;4.47;;;1.30;99.90;;;;;;5044670;28;20040;-71
2022/12/20 02:20:50;;;;;;;8.43;4.18;;;1.40;99.90;;;;;;5036689;28;20036;-70
2022/12/20 02:23:46;;;;;;;9.18;4.22;;;1.30;99.90;;;;;;5037382;28;20553;-70
2022/12/20 02:26:21;;;;;;;11.85;4.93;;;1.30;99.90;;;;;;5039706;28;20028;-70
2022/12/20 02:28:59;;;;;;;8.95;4.90;;;1.40;99.90;;;;;;5044736;28;20090;-71
2022/12/20 02:31:32;;;;;;;7.90;4.43;;;1.50;99.90;;;;;;5031828;28;20038;-70
2022/12/20 02:33:58;;;;;;;11.00;5.72;;;1.50;99.90;;;;;;5038535;28;20033;-70
2022/12/20 02:36:24;;;;;;;15.55;5.93;;;1.60;99.90;;;;;;5033492;28;20041;-70
2022/12/20 02:38:50;;;;;;;9.73;4.45;;;1.60;99.90;;;;;;5039795;28;20036;-70
2022/12/20 02:41:28;;;;;;;10.43;5.20;;;1.50;99.90;;;;;;5039589;28;20510;-70
2022/12/20 02:46:59;;;;;;;8.63;4.40;;;1.30;99.90;;;;;;5036590;28;20067;-70
2022/12/20 02:49:29;;;;;;;11.15;5.28;;;1.30;99.90;;;;;;5032381;28;20431;-70
2022/12/20 02:51:56;;;;;;;11.18;4.53;;;1.40;99.90;;;;;;5039707;28;20021;-70
2022/12/20 02:54:22;;;;;;;9.60;4.93;;;1.10;99.90;;;;;;5034571;28;20037;-70
2022/12/20 02:57:07;;;;;;;7.13;4.18;;;1.10;99.90;;;;;;5041784;28;20030;-70
2022/12/20 02:59:42;;;;;;;8.27;4.35;;;1.10;99.90;;;;;;5035245;28;20028;-70
2022/12/20 03:02:09;;;;;;;9.95;4.40;;;1.10;99.90;;;;;;5035312;28;20506;-70
2022/12/20 03:04:38;;;;;;;7.68;3.67;;;1.10;99.90;;;;;;5029551;28;20418;-70
2022/12/20 03:07:11;;;;;;;10.93;4.10;;;1.00;99.90;;;;;;5036108;28;20040;-70
2022/12/20 03:09:39;;;;;;;11.05;5.35;;;0.90;99.90;;;;;;5037993;28;20034;-70
2022/12/20 03:12:06;;;;;;;8.63;4.50;;;0.90;99.90;;;;;;5039082;28;20463;-70
2022/12/20 03:14:32;;;;;;;8.52;4.45;;;0.80;99.90;;;;;;5038618;28;20037;-70
2022/12/20 03:16:58;;;;;;;8.30;3.78;;;0.70;99.90;;;;;;5036759;28;20079;-70
2022/12/20 03:19:24;;;;;;;7.90;4.05;;;0.60;99.90;;;;;;5027374;28;20398;-70
2022/12/20 03:21:49;;;;;;;8.35;3.80;;;0.50;99.90;;;;;;5045707;28;20029;-70
2022/12/20 03:24:15;;;;;;;10.45;4.40;;;0.60;99.90;;;;;;5028822;28;20067;-70
2022/12/20 03:26:42;;;;;;;8.43;4.57;;;0.70;99.90;;;;;;5041149;28;20429;-70
2022/12/20 03:29:08;;;;;;;11.25;4.28;;;0.90;99.90;;;;;;5030754;28;20395;-70
2022/12/20 03:31:35;;;;;;;5.97;3.42;;;1.00;99.90;;;;;;5045785;28;20041;-70
2022/12/20 03:34:01;;;;;;;6.65;3.83;;;1.10;99.90;;;;;;5041433;28;20031;-71
2022/12/20 03:36:27;;;;;;;7.07;3.90;;;1.30;99.90;;;;;;5036262;28;20037;-70
2022/12/20 03:38:53;;;;;;;9.90;4.32;;;1.50;99.90;;;;;;5043849;28;20078;-70
2022/12/20 03:41:20;;;;;;;9.07;4.43;;;1.40;99.90;;;;;;5044376;28;20039;-70
2022/12/20 03:43:47;;;;;;;8.20;3.60;;;1.40;99.90;;;;;;5041275;28;20562;-70
2022/12/20 03:46:13;;;;;;;7.25;4.05;;;1.10;99.90;;;;;;5046200;28;20106;-70
2022/12/20 03:48:38;;;;;;;7.60;3.92;;;1.10;99.90;;;;;;5044999;28;20376;-70
2022/12/20 03:51:04;;;;;;;8.43;4.07;;;1.00;99.90;;;;;;5049826;28;20044;-70
2022/12/20 03:53:30;;;;;;;7.45;3.70;;;1.10;99.90;;;;;;5043237;28;20164;-70
2022/12/20 03:55:56;;;;;;;9.00;4.15;;;0.90;99.90;;;;;;5039058;28;20074;-70
2022/12/20 03:58:22;;;;;;;8.55;3.45;;;0.80;99.90;;;;;;5034889;28;20124;-70
2022/12/20 04:00:48;;;;;;;8.73;4.07;;;0.90;99.90;;;;;;5033207;28;20028;-68
2022/12/20 04:03:13;;;;;;;9.10;4.20;;;0.90;99.90;;;;;;5035938;28;20510;-68
2022/12/20 04:05:39;;;;;;;6.47;3.60;;;1.00;99.90;;;;;;5033906;28;20056;-68
2022/12/20 04:08:05;;;;;;;7.97;3.47;;;1.20;99.90;;;;;;5034016;28;20029;-70
2022/12/20 04:10:30;;;;;;;8.57;4.20;;;1.20;99.90;;;;;;5038812;28;20047;-68
2022/12/20 04:12:56;;;;;;;9.00;4.10;;;1.20;99.90;;;;;;5034639;28;20486;-68
2022/12/20 04:15:22;;;;;;;8.30;4.13;;;1.40;99.90;;;;;;5033565;28;20025;-69
2022/12/20 04:17:47;;;;;;;7.68;4.28;;;1.40;99.90;;;;;;5027867;28;20467;-68
2022/12/20 04:20:17;;;;;;;6.60;3.58;;;1.40;99.90;;;;;;5025327;28;20037;-68
2022/12/20 04:22:47;;;;;;;5.90;3.58;;;1.30;99.90;;;;;;5032195;28;20026;-69
2022/12/20 04:25:13;;;;;;;7.70;3.88;;;1.10;99.90;;;;;;5032748;28;20036;-69
2022/12/20 04:27:39;;;;;;;7.13;3.58;;;1.30;99.90;;;;;;5034018;28;20491;-68
2022/12/20 04:30:05;;;;;;;7.70;4.13;;;1.30;99.90;;;;;;5033173;28;20044;-69
2022/12/20 04:32:30;;;;;;;8.18;4.40;;;1.20;99.90;;;;;;5032480;28;20596;-69
2022/12/20 04:34:56;;;;;;;7.97;4.00;;;1.10;99.90;;;;;;5045244;28;20117;-68
2022/12/20 04:37:22;;;;;;;11.52;4.25;;;1.20;99.90;;;;;;5043134;28;20037;-69
2022/12/20 04:39:47;;;;;;;8.00;4.20;;;1.20;99.90;;;;;;5036546;28;20100;-68
2022/12/20 04:42:13;;;;;;;7.97;4.25;;;1.10;99.90;;;;;;5033304;28;20030;-68
2022/12/20 04:44:38;;;;;;;8.13;4.43;;;1.00;99.90;;;;;;5035457;28;20030;-69
2022/12/20 04:47:04;;;;;;;8.85;4.05;;;1.10;99.90;;;;;;5034406;28;20093;-70
2022/12/20 04:49:30;;;;;;;7.50;4.25;;;1.00;99.90;;;;;;5026535;28;20040;-69
2022/12/20 04:53:46;;;;;;;8.63;4.75;;;1.00;99.90;;;;;;5033767;28;20029;-70
2022/12/20 04:54:41;;;;;;;9.18;3.97;;;0.80;99.90;;;;;;5030358;28;20072;-69
2022/12/20 04:57:08;;;;;;;10.10;4.45;;;0.70;99.90;;;;;;5033151;28;20063;-69
2022/12/20 04:59:34;;;;;;;9.65;4.32;;;0.70;99.90;;;;;;5040284;28;20025;-68
2022/12/20 05:02:00;;;;;;;7.65;4.38;;;0.70;99.90;;;;;;5033035;28;20029;-68
2022/12/20 05:04:26;;;;;;;9.23;3.92;;;0.80;99.90;;;;;;5035987;28;20033;-69
2022/12/20 05:06:52;;;;;;;9.82;4.38;;;0.90;99.90;;;;;;5023906;28;20025;-68
2022/12/20 05:09:17;;;;;;;8.07;4.45;;;1.00;99.90;;;;;;5035249;28;20025;-69
2022/12/20 05:11:43;;;;;;;11.13;4.35;;;0.90;99.90;;;;;;5038906;28;20049;-69
2022/12/20 05:14:09;;;;;;;8.98;4.40;;;1.00;99.90;;;;;;5030623;28;20136;-69
2022/12/20 05:16:34;;;;;;;10.13;4.00;;;1.00;99.90;;;;;;5025068;28;20468;-68
2022/12/20 05:19:02;;;;;;;8.65;3.78;;;0.80;99.90;;;;;;5030996;28;20085;-69
2022/12/20 05:26:56;;;;;;;11.50;5.50;;;1.10;99.90;;;;;;5030277;28;20430;-69
2022/12/20 05:29:21;;;;;;;8.82;4.28;;;1.00;99.90;;;;;;5026631;28;20033;-69
2022/12/20 05:31:47;;;;;;;11.63;4.15;;;1.00;99.90;;;;;;5031173;28;20037;-69
2022/12/20 05:34:13;;;;;;;12.00;4.32;;;1.20;99.90;;;;;;5035876;28;20104;-69
2022/12/20 05:36:38;;;;;;;8.10;4.18;;;1.00;99.90;;;;;;5033836;28;20195;-68
2022/12/20 05:39:05;;;;;;;10.70;5.22;;;0.80;99.90;;;;;;5032623;28;20039;-69
2022/12/20 05:41:30;;;;;;;11.15;4.40;;;1.00;99.90;;;;;;5025408;28;20034;-69
2022/12/20 05:43:56;;;;;;;7.88;4.35;;;0.90;99.90;;;;;;5022865;28;20044;-69
2022/12/20 05:46:22;;;;;;;9.07;3.60;;;1.00;99.90;;;;;;5031524;28;20049;-69
2022/12/20 05:48:47;;;;;;;6.90;3.88;;;0.90;99.90;;;;;;5028890;28;20128;-69
2022/12/20 05:51:13;;;;;;;7.43;4.03;;;0.90;99.90;;;;;;5028764;28;20041;-69
2022/12/20 05:53:39;;;;;;;9.32;4.07;;;0.90;99.90;;;;;;5042266;28;20036;-68
2022/12/20 05:56:05;;;;;;;6.72;3.85;;;0.80;99.90;;;;;;5040978;28;20455;-69
2022/12/20 05:58:31;;;;;;;6.50;3.30;;;0.90;99.90;;;;;;5036960;28;20079;-69
2022/12/20 06:00:59;;;;;;;9.18;5.25;;;0.80;99.90;;;;;;5031195;28;20112;-69
2022/12/20 06:03:25;;;;;;;7.68;4.15;;;0.70;99.90;;;;;;5022446;28;20033;-68
2022/12/20 06:05:51;;;;;;;6.80;4.25;;;0.60;99.90;;;;;;5031048;28;20509;-69
2022/12/20 06:08:16;;;;;;;6.97;3.67;;;0.60;99.90;;;;;;5025905;28;20033;-68
2022/12/20 06:10:42;;;;;;;8.65;4.32;;;0.60;99.90;;;;;;5025107;28;20107;-69
2022/12/20 06:13:09;;;;;;;9.73;4.30;;;0.40;99.90;;;;;;5029148;28;20036;-69
2022/12/20 06:15:34;;;;;;;8.30;4.25;;;0.30;99.90;;;;;;5022718;28;20064;-69
2022/12/20 06:18:00;;;;;;;10.40;4.70;;;0.30;99.90;;;;;;5026809;28;20479;-68
2022/12/20 06:20:27;;;;;;;13.98;5.50;;;0.30;99.90;;;;;;5022347;28;20052;-68
2022/12/20 06:22:53;;;;;;;9.32;4.72;;;0.50;99.90;;;;;;5023729;28;20041;-69
2022/12/20 06:25:19;;;;;;;7.80;4.10;;;0.50;99.90;;;;;;5034604;28;20523;-69
2022/12/20 06:27:45;;;;;;;8.48;3.78;;;0.50;99.90;;;;;;5037393;28;20059;-68
2022/12/20 06:30:11;;;;;;;8.73;4.03;;;0.40;99.90;;;;;;5036997;28;20033;-68
2022/12/20 06:32:37;;;;;;;7.63;3.88;;;0.40;99.90;;;;;;5035021;28;20514;-69
2022/12/20 06:35:03;;;;;;;7.05;3.88;;;0.40;99.90;;;;;;5031984;28;20040;-69
2022/12/20 06:37:29;;;;;;;6.57;3.90;;;0.60;99.90;;;;;;5029573;28;20037;-69
2022/12/20 06:39:55;;;;;;;10.13;4.53;;;0.50;99.90;;;;;;5028503;28;20099;-69
2022/12/20 06:42:20;;;;;;;9.38;3.60;;;0.60;99.90;;;;;;5025277;28;20029;-68
2022/12/20 06:44:46;;;;;;;9.07;3.75;;;0.50;99.90;;;;;;5024541;28;20110;-69
2022/12/20 06:47:12;;;;;;;7.43;3.70;;;0.60;99.90;;;;;;5027840;28;20052;-70
2022/12/20 06:49:37;;;;;;;9.23;5.00;;;0.90;99.90;;;;;;5036059;28;20112;-69
2022/12/20 06:52:03;;;;;;;7.88;3.47;;;1.00;99.90;;;;;;5028543;28;20061;-69
2022/12/20 06:54:29;;;;;;;10.23;4.20;;;0.80;99.90;;;;;;5021876;28;20037;-69
2022/12/20 06:56:55;;;;;;;7.20;3.95;;;0.80;99.90;;;;;;5029081;28;20030;-69
2022/12/20 06:59:20;;;;;;;10.93;4.10;;;0.70;99.90;;;;;;5028988;28;20037;-70
2022/12/20 07:01:46;;;;;;;7.13;3.85;;;0.60;99.90;;;;;;5029173;28;20027;-68
2022/12/20 07:04:11;;;;;;;8.82;3.70;;;0.70;99.90;;;;;;5041346;28;20041;-68
2022/12/20 07:06:37;;;;;;;7.82;4.03;;;0.60;99.90;;;;;;5028012;28;20037;-69
2022/12/20 07:09:03;;;;;;;6.47;3.25;;;0.60;99.90;;;;;;5031165;28;20033;-69
2022/12/20 07:11:28;;;;;;;6.57;3.00;;;0.60;99.90;;;;;;5032584;28;20038;-68
2022/12/20 07:13:57;;;;;;;9.57;3.63;;;0.40;99.90;;;;;;5030187;28;20025;-69
2022/12/20 07:16:23;;;;;;;8.02;3.78;;;0.50;99.90;;;;;;5029671;28;20037;-68
2022/12/20 07:18:52;;;;;;;8.75;3.90;;;0.70;99.90;;;;;;5035328;28;20534;-68
2022/12/20 07:21:18;;;;;;;7.70;3.95;;;0.90;99.90;;;;;;5022352;28;20379;-68
2022/12/20 07:23:45;;;;;;;7.10;3.58;;;0.90;99.90;;;;;;5032950;28;20025;-68
2022/12/20 07:26:10;;;;;;;9.07;3.78;;;0.90;99.90;;;;;;5036888;28;20033;-68
2022/12/20 07:28:37;;;;;;;7.82;3.53;;;0.90;99.90;;;;;;5021432;28;20602;-69
2022/12/20 07:31:03;;;;;;;7.95;3.90;;;0.80;99.90;;;;;;5022194;28;20040;-67
2022/12/20 07:33:29;;;;;;;8.73;4.32;;;0.80;99.90;;;;;;5033425;28;20402;-68
2022/12/20 07:36:06;;;;;;;9.77;4.78;;;0.80;99.90;;;;;;5029257;28;20029;-69
2022/12/20 07:38:32;;;;;;;10.18;4.72;;;0.80;99.90;;;;;;5042651;28;20112;-69
2022/12/20 07:40:57;;;;;;;9.02;4.30;;;0.90;99.90;;;;;;5028752;28;20600;-70
2022/12/20 07:43:24;;;;;;;8.65;4.70;;;0.90;99.90;;;;;;5013245;28;20035;-69
2022/12/20 07:45:54;;;;;;;8.27;4.80;;;0.90;99.90;;;;;;5028845;28;20030;-69
2022/12/20 07:48:20;;;;;;;8.75;4.78;;;0.90;99.90;;;;;;5026794;28;20566;-69
2022/12/20 07:50:46;;;;;;;8.32;4.35;;;0.80;99.90;;;;;;5027874;28;20081;-69
2022/12/20 07:53:12;;;;;;;7.35;3.65;;;1.00;99.90;;;;;;5027911;28;20556;-70
2022/12/20 07:55:40;;;;;;;7.07;3.50;;;1.20;99.90;;;;;;5014900;28;20029;-69
2022/12/20 07:58:08;;;;;;;7.65;3.80;;;1.40;99.90;;;;;;5032014;28;20116;-69
2022/12/20 08:00:36;;;;;;;9.43;3.72;;;1.50;99.90;;;;;;5022615;28;20606;-69
2022/12/20 08:03:05;;;;;;;6.88;4.07;;;2.00;99.90;;;;;;5028290;28;20021;-69
2022/12/20 08:05:32;;;;;;;10.80;4.20;;;1.80;99.90;;;;;;5028113;28;20038;-70
2022/12/20 08:07:59;;;;;;;8.10;4.40;;;1.70;99.90;;;;;;5019696;28;20041;-69
2022/12/20 08:10:25;;;;;;;9.00;4.75;;;1.70;99.90;;;;;;5022046;28;20045;-69
2022/12/20 08:12:51;;;;;;;18.42;9.93;;;1.50;99.90;;;;;;5032202;28;20025;-69
2022/12/20 08:15:18;;;;;;;10.20;5.30;;;1.60;99.90;;;;;;5018324;28;20045;-69
2022/12/20 08:17:44;;;;;;;8.27;4.35;;;1.60;99.90;;;;;;5035719;28;20037;-70
2022/12/20 08:20:10;;;;;;;8.38;4.60;;;1.60;99.90;;;;;;5020225;28;20045;-69
2022/12/20 08:22:35;;;;;;;10.13;3.88;;;1.60;99.90;;;;;;5024900;28;20054;-69
2022/12/20 08:25:01;;;;;;;10.13;4.90;;;1.60;99.90;;;;;;5023372;28;20100;-70
2022/12/20 08:27:27;;;;;;;9.32;4.55;;;1.70;99.90;;;;;;5031605;28;20041;-69
2022/12/20 08:29:53;;;;;;;9.85;4.80;;;1.60;99.90;;;;;;5043392;28;20025;-69
2022/12/20 08:32:19;;;;;;;10.30;5.18;;;1.60;99.90;;;;;;5026346;28;20072;-69
2022/12/20 08:34:44;;;;;;;8.32;4.47;;;1.50;99.90;;;;;;5026187;28;20021;-69
2022/12/20 08:37:10;;;;;;;10.32;5.18;;;1.40;99.90;;;;;;5024123;28;20040;-70
2022/12/20 08:39:36;;;;;;;8.93;5.03;;;1.40;99.90;;;;;;5025428;28;20436;-70
2022/12/20 08:42:03;;;;;;;9.05;5.05;;;1.60;99.90;;;;;;5037100;28;20093;-69
2022/12/20 08:44:29;;;;;;;8.90;4.93;;;1.70;99.90;;;;;;5033304;28;20049;-69
2022/12/20 08:46:55;;;;;;;15.13;4.95;;;1.70;99.90;;;;;;5030928;28;20045;-70
2022/12/20 08:49:20;;;;;;;9.38;4.47;;;1.80;99.90;;;;;;5034937;28;20496;-71
2022/12/20 08:51:46;;;;;;;9.18;4.40;;;1.80;99.90;;;;;;5033773;28;20682;-69
2022/12/20 08:54:12;;;;;;;14.02;6.82;;;1.60;99.90;;;;;;5034578;28;20025;-70
2022/12/20 08:56:37;;;;;;;9.23;5.25;;;1.50;99.90;;;;;;5036187;28;20551;-69
2022/12/20 08:59:03;;;;;;;12.18;5.22;;;1.70;99.90;;;;;;5029931;28;20026;-69
2022/12/20 09:01:32;;;;;;;9.30;5.18;;;1.80;99.90;;;;;;5031753;28;20053;-71
2022/12/20 09:03:58;;;;;;;9.60;4.82;;;1.90;99.90;;;;;;5031136;28;20028;-70
2022/12/20 09:06:24;;;;;;;11.55;5.35;;;1.80;99.90;;;;;;5033665;28;20036;-71
2022/12/20 09:08:49;;;;;;;11.35;6.32;;;1.70;99.90;;;;;;5030836;28;20045;-71
2022/12/20 09:11:21;;;;;;;11.45;6.07;;;1.80;99.90;;;;;;5033420;28;20094;-71
2022/12/20 09:13:49;;;;;;;12.27;5.50;;;1.80;99.90;;;;;;5030890;28;20021;-71
2022/12/20 09:16:17;;;;;;;12.13;6.65;;;1.80;99.90;;;;;;5032590;28;20033;-71
2022/12/20 09:18:43;;;;;;;9.43;4.32;;;1.90;99.90;;;;;;5025689;28;20026;-71
2022/12/20 09:21:10;;;;;;;8.82;4.85;;;1.90;99.90;;;;;;5028149;28;20025;-71
2022/12/20 09:23:36;;;;;;;9.18;5.10;;;2.10;99.90;;;;;;5031070;28;20036;-70
2022/12/20 09:26:09;;;;;;;10.45;4.80;;;2.20;99.90;;;;;;5031547;28;20112;-72
2022/12/20 09:28:35;;;;;;;8.07;4.90;;;2.10;99.90;;;;;;5032868;28;20033;-72
2022/12/20 09:31:03;;;;;;;8.90;4.65;;;2.10;99.90;;;;;;5026589;28;20428;-72
2022/12/20 09:33:30;;;;;;;10.43;4.72;;;2.00;99.90;;;;;;5033292;28;20033;-71
2022/12/20 09:35:57;;;;;;;7.93;5.22;;;2.00;99.90;;;;;;5026250;28;20068;-71
2022/12/20 09:38:23;;;;;;;11.13;4.78;;;2.00;99.90;;;;;;5029788;28;20030;-73
2022/12/20 09:40:55;;;;;;;9.00;4.80;;;2.10;99.90;;;;;;5018716;28;20517;-71
2022/12/20 09:43:22;;;;;;;12.80;5.35;;;2.10;99.90;;;;;;5030307;28;20064;-72
2022/12/20 09:45:51;;;;;;;8.50;4.18;;;2.40;99.90;;;;;;5032236;28;20033;-72
2022/12/20 09:48:44;;;;;;;8.45;3.72;;;2.50;99.90;;;;;;5027815;28;20144;-71
2022/12/20 09:51:20;;;;;;;12.38;5.93;;;2.70;99.90;;;;;;5032724;28;20041;-72
2022/12/20 09:54:15;;;;;;;7.65;3.88;;;2.70;99.90;;;;;;5038287;28;20029;-72
2022/12/20 09:56:50;;;;;;;19.13;11.20;;;3.60;99.90;;;;;;5031219;28;20087;-72
2022/12/20 09:59:19;;;;;;;8.35;5.25;;;3.20;99.90;;;;;;5024410;28;20021;-72
2022/12/20 10:01:47;;;;;;;11.05;5.63;;;2.90;99.90;;;;;;5023921;28;20489;-71
2022/12/20 10:04:28;;;;;;;8.75;5.32;;;2.80;99.90;;;;;;5022688;28;20032;-72
2022/12/20 10:07:05;;;;;;;15.40;5.63;;;2.60;99.90;;;;;;5037185;28;20033;-70
2022/12/20 10:09:59;;;;;;;8.65;4.22;;;2.60;99.90;;;;;;5030195;28;20030;-71
2022/12/20 10:12:27;;;;;;;10.45;4.72;;;2.60;99.90;;;;;;5024532;28;20037;-72
2022/12/20 10:15:11;;;;;;;8.55;4.43;;;2.50;99.90;;;;;;5034549;28;20040;-71
2022/12/20 10:17:56;;;;;;;11.10;4.90;;;2.40;99.90;;;;;;5024083;28;20018;-72
2022/12/20 10:20:37;;;;;;;10.20;5.03;;;2.40;99.90;;;;;;5022214;28;20383;-71
2022/12/20 10:23:22;;;;;;;10.68;5.43;;;2.40;99.90;;;;;;5026633;28;20057;-71
2022/12/20 10:25:53;;;;;;;8.18;4.88;;;2.50;99.90;;;;;;5038507;28;20021;-71
2022/12/20 10:28:24;;;;;;;8.50;4.65;;;2.50;99.90;;;;;;5026800;28;20029;-71
2022/12/20 10:30:50;;;;;;;9.63;4.35;;;2.60;99.90;;;;;;5029439;28;20633;-72
2022/12/20 10:33:21;;;;;;;11.98;5.63;;;2.60;99.90;;;;;;5022909;28;20088;-71
2022/12/20 10:35:47;;;;;;;8.38;4.00;;;2.70;99.90;;;;;;5034559;28;20045;-71
2022/12/20 10:38:16;;;;;;;7.70;4.22;;;2.70;99.90;;;;;;5040791;28;20035;-71
2022/12/20 10:41:05;;;;;;;7.93;3.78;;;2.80;99.90;;;;;;5028838;28;20033;-71
2022/12/20 10:44:15;;;;;;;8.18;4.63;;;2.80;99.90;;;;;;5032453;28;20056;-70
2022/12/20 10:46:48;;;;;;;12.43;7.60;;;3.00;99.90;;;;;;4986130;28;20041;-72
2022/12/20 10:49:29;;;;;;;9.95;4.22;;;3.10;99.90;;;;;;5022529;28;20128;-73
2022/12/20 10:52:17;;;;;;;14.68;6.95;;;3.10;99.90;;;;;;5036028;28;20035;-72
2022/12/20 10:54:45;;;;;;;14.10;7.47;;;2.70;99.90;;;;;;5028970;28;20436;-72
2022/12/20 10:57:26;;;;;;;10.55;5.43;;;2.60;99.90;;;;;;5022272;28;20029;-73
2022/12/20 10:59:57;;;;;;;10.48;6.05;;;2.50;99.90;;;;;;5028656;28;20506;-73
2022/12/20 11:02:30;;;;;;;14.13;6.57;;;2.60;99.90;;;;;;5030150;28;20087;-73
2022/12/20 11:05:05;;;;;;;13.90;5.78;;;2.70;99.90;;;;;;5035612;28;20068;-73
2022/12/20 11:07:34;;;;;;;9.75;5.93;;;2.70;99.90;;;;;;5030865;28;20108;-72
2022/12/20 11:10:25;;;;;;;10.38;5.60;;;2.70;99.90;;;;;;5024485;28;20602;-72
2022/12/20 11:12:54;;;;;;;9.43;5.45;;;2.90;99.90;;;;;;5013522;28;20045;-73
2022/12/20 11:15:26;;;;;;;9.32;5.78;;;3.00;99.90;;;;;;5021976;28;20033;-72
2022/12/20 11:18:14;;;;;;;12.70;6.85;;;2.80;99.90;;;;;;5036476;28;20049;-73
2022/12/20 11:21:10;;;;;;;11.50;6.88;;;2.90;99.90;;;;;;5029111;28;20025;-72
2022/12/20 11:24:00;;;;;;;11.35;6.57;;;3.00;99.90;;;;;;5035601;28;20025;-72
2022/12/20 11:26:35;;;;;;;14.85;7.63;;;3.10;99.90;;;;;;5022090;28;20064;-73
2022/12/20 11:29:19;;;;;;;14.68;7.00;;;2.90;99.90;;;;;;5027702;28;20025;-73
2022/12/20 11:32:00;;;;;;;7.63;4.10;;;3.00;99.90;;;;;;5027120;28;20516;-72
2022/12/20 11:35:04;;;;;;;9.55;4.47;;;3.20;99.90;;;;;;5030436;28;20037;-72
2022/12/20 11:37:43;;;;;;;7.90;4.72;;;3.50;99.90;;;;;;4986027;28;20069;-73
2022/12/20 11:40:30;;;;;;;9.20;5.88;;;3.70;99.90;;;;;;5028876;28;20030;-73
2022/12/20 11:43:15;;;;;;;7.22;3.78;;;3.60;99.90;;;;;;5029182;28;20115;-72
2022/12/20 11:46:19;;;;;;;8.07;4.35;;;3.50;99.40;;;;;;5032798;28;20029;-73
2022/12/20 11:49:10;;;;;;;8.93;5.40;;;3.50;99.70;;;;;;5027902;28;20500;-73
2022/12/20 11:51:46;;;;;;;9.40;4.60;;;3.70;99.80;;;;;;5032539;28;20106;-73
2022/12/20 11:54:24;;;;;;;11.77;5.85;;;3.80;99.90;;;;;;5027748;28;20029;-73
2022/12/20 11:56:55;;;;;;;8.43;4.70;;;3.70;99.70;;;;;;5021093;28;20029;-73
2022/12/20 11:59:29;;;;;;;13.40;5.80;;;3.70;99.90;;;;;;5033265;28;20025;-73
2022/12/20 12:02:00;;;;;;;9.98;5.10;;;3.80;99.90;;;;;;5026490;28;20033;-73
2022/12/20 12:04:31;;;;;;;13.93;4.93;;;3.80;99.90;;;;;;5029336;28;20115;-73
2022/12/20 12:07:18;;;;;;;11.13;5.82;;;3.70;99.90;;;;;;5032558;28;20084;-73
2022/12/20 12:09:54;;;;;;;11.90;7.25;;;3.60;99.90;;;;;;5039784;28;20032;-73
2022/12/20 12:12:24;;;;;;;14.50;7.28;;;3.60;99.90;;;;;;5030673;28;20048;-72
2022/12/20 12:14:57;;;;;;;15.75;7.78;;;3.40;99.90;;;;;;5027988;28;20029;-72
2022/12/20 12:17:30;;;;;;;10.52;6.63;;;3.40;99.90;;;;;;5034553;28;20383;-72
2022/12/20 12:20:08;;;;;;;12.77;7.32;;;3.40;99.90;;;;;;5039790;28;20029;-73
2022/12/20 12:22:36;;;;;;;10.80;5.60;;;3.60;99.90;;;;;;5034493;28;20072;-73
2022/12/20 12:25:12;;;;;;;10.32;6.45;;;3.60;99.90;;;;;;5040523;28;20029;-73
2022/12/20 12:27:37;;;;;;;10.57;6.85;;;3.50;99.90;;;;;;5038124;28;20098;-73
2022/12/20 12:30:04;;;;;;;10.38;6.22;;;3.60;99.90;;;;;;5035785;28;20042;-73
2022/12/20 12:32:40;;;;;;;14.20;8.32;;;3.50;99.90;;;;;;5029068;28;20064;-73
2022/12/20 12:35:37;;;;;;;12.40;6.45;;;3.70;99.90;;;;;;5043934;28;20029;-73
2022/12/20 12:38:29;;;;;;;15.50;6.57;;;3.60;99.90;;;;;;5041497;28;20414;-73
2022/12/20 12:41:25;;;;;;;15.23;6.65;;;3.60;99.90;;;;;;5036976;28;20033;-73
2022/12/20 12:44:21;;;;;;;18.00;6.60;;;3.40;99.90;;;;;;5038159;28;20030;-73
2022/12/20 12:46:54;;;;;;;13.13;6.65;;;3.40;99.90;;;;;;5028627;28;20080;-73
2022/12/20 12:49:23;;;;;;;13.35;6.75;;;3.50;99.90;;;;;;5036275;28;20055;-73
2022/12/20 12:51:52;;;;;;;12.48;7.70;;;3.50;99.90;;;;;;5033133;28;20025;-74
2022/12/20 12:54:23;;;;;;;11.77;6.82;;;3.50;99.90;;;;;;5034430;28;20036;-73
2022/12/20 12:56:50;;;;;;;13.18;7.30;;;3.60;99.90;;;;;;5035012;28;20092;-74
2022/12/20 12:59:28;;;;;;;12.02;7.15;;;3.70;99.90;;;;;;5030917;28;20104;-74
2022/12/20 13:02:15;;;;;;;13.98;6.85;;;3.50;99.90;;;;;;5035510;28;20033;-73
2022/12/20 13:05:09;;;;;;;17.08;8.02;;;3.60;99.90;;;;;;5030002;28;20033;-73
2022/12/20 13:07:35;;;;;;;17.52;7.70;;;3.40;99.90;;;;;;5019494;28;20088;-73
2022/12/20 13:10:19;;;;;;;15.52;7.97;;;3.50;99.90;;;;;;5031394;28;20029;-73
2022/12/20 13:12:50;;;;;;;13.27;6.55;;;3.50;99.90;;;;;;5026258;28;20376;-73
2022/12/20 13:15:18;;;;;;;11.10;7.00;;;3.40;99.90;;;;;;5033667;28;20026;-73
2022/12/20 13:17:47;;;;;;;13.23;6.95;;;3.40;99.90;;;;;;5029266;28;20025;-73